Time;durP1;ratioP1;P1;durP2;ratioP2;P2;SDS_P1;SDS_P2;PMS_P1;PMS_P2;Temp;Humidity;BMP_temperature;BMP_pressure;BME280_temperature;BME280_humidity;BME280_pressure;Samples;Min_cycle;Max_cycle;Signal;HPM_P1;HPM_P2
2022/08/04 00:01:21;;;;;;;;;;;;;;;26.26;41.09;100415.09;20566878;28;98673;-75
2022/08/04 00:11:24;;;;;;;;;;;;;;;26.12;41.57;100418.25;20567860;28;98616;-76
2022/08/04 00:21:25;;;;;;;;;;;;;;;26.02;41.15;100424.47;20565336;28;100170;-76
2022/08/04 00:31:26;;;;;;;;;;;;;;;25.99;41.67;100430.03;20568631;28;98774;-75
2022/08/04 00:41:36;;;;;;;;;;;;;;;25.96;41.88;100432.16;20573446;28;97882;-76
2022/08/04 00:51:45;;;;;;;;;;;;;;;25.84;41.75;100439.50;20567963;28;98545;-75
2022/08/04 01:02:18;;;;;;;;;;;;;;;25.74;42.22;100447.50;20561214;28;98102;-76
2022/08/04 01:12:37;;;;;;;;;;;;;;;25.72;41.92;100446.84;20510851;28;97977;-75
2022/08/04 01:22:57;;;;;;;;;;;;;;;25.62;41.92;100446.88;20563757;28;98193;-75
2022/08/04 01:32:58;;;;;;;;;;;;;;;25.49;41.86;100446.38;20516773;28;97607;-75
2022/08/04 01:42:59;;;;;;;;;;;;;;;25.42;42.09;100440.81;20563510;28;97833;-76
2022/08/04 01:52:59;;;;;;;;;;;;;;;25.31;42.24;100443.63;20563540;28;98235;-75
2022/08/04 02:02:59;;;;;;;;;;;;;;;25.24;42.56;100438.91;20572338;28;101034;-75
2022/08/04 02:13:15;;;;;;;;;;;;;;;25.23;42.69;100437.22;20547772;28;97839;-75
2022/08/04 02:23:27;;;;;;;;;;;;;;;25.19;42.45;100432.34;20567365;28;97727;-75
2022/08/04 02:33:50;;;;;;;;;;;;;;;25.14;42.33;100434.59;20569580;28;97218;-75
2022/08/04 02:43:51;;;;;;;;;;;;;;;25.10;42.08;100442.00;20567209;28;99514;-75
2022/08/04 02:53:53;;;;;;;;;;;;;;;25.02;42.20;100440.06;20579349;28;98202;-75
2022/08/04 03:04:11;;;;;;;;;;;;;;;25.06;41.90;100428.22;20579908;28;98417;-76
2022/08/04 03:14:18;;;;;;;;;;;;;;;24.95;42.50;100438.97;20587886;28;97783;-75
2022/08/04 03:24:35;;;;;;;;;;;;;;;24.94;42.40;100435.47;20581479;28;98871;-76
2022/08/04 03:34:54;;;;;;;;;;;;;;;24.88;42.46;100440.53;20580996;28;97950;-76
2022/08/04 03:45:21;;;;;;;;;;;;;;;24.86;42.65;100445.13;20572095;28;99866;-76
2022/08/04 03:55:36;;;;;;;;;;;;;;;24.88;42.28;100449.28;20537842;28;102059;-76
2022/08/04 04:05:58;;;;;;;;;;;;;;;24.85;42.14;100451.38;20576468;28;97680;-76
2022/08/04 04:16:19;;;;;;;;;;;;;;;24.80;41.96;100454.47;20573260;28;97225;-75
2022/08/04 04:26:19;;;;;;;;;;;;;;;24.81;42.15;100455.31;20575507;28;97640;-76
2022/08/04 04:36:25;;;;;;;;;;;;;;;24.79;42.26;100460.72;20575788;28;98534;-75
2022/08/04 04:46:34;;;;;;;;;;;;;;;24.81;42.63;100466.72;20569911;28;100931;-76
2022/08/04 04:56:53;;;;;;;;;;;;;;;24.84;42.64;100469.09;20595782;28;100751;-77
2022/08/04 05:07:12;;;;;;;;;;;;;;;24.82;43.13;100479.00;20588271;28;97813;-76
2022/08/04 05:17:16;;;;;;;;;;;;;;;24.91;43.04;100479.94;20586029;28;97317;-76
2022/08/04 05:27:20;;;;;;;;;;;;;;;24.98;43.09;100485.53;20584483;28;106116;-79
2022/08/04 05:37:21;;;;;;;;;;;;;;;25.04;43.26;100492.91;20605206;28;98912;-80
2022/08/04 05:47:23;;;;;;;;;;;;;;;25.06;42.90;100506.84;20581719;28;98168;-76
2022/08/04 05:57:23;;;;;;;;;;;;;;;25.12;42.49;100502.78;20560207;28;98532;-78
2022/08/04 06:07:25;;;;;;;;;;;;;;;25.21;42.68;100512.56;20549357;28;99505;-79
2022/08/04 06:17:37;;;;;;;;;;;;;;;25.29;42.26;100504.69;20552927;28;99778;-76
2022/08/04 06:27:39;;;;;;;;;;;;;;;25.38;41.90;100511.84;20578887;28;97836;-78
2022/08/04 06:37:39;;;;;;;;;;;;;;;25.49;41.75;100510.00;20568731;28;100506;-77
2022/08/04 06:47:40;;;;;;;;;;;;;;;25.59;41.17;100497.53;20587536;28;98508;-77
2022/08/04 06:57:42;;;;;;;;;;;;;;;25.70;40.47;100496.53;20579631;28;97660;-75
2022/08/04 07:07:43;;;;;;;;;;;;;;;25.78;39.98;100499.28;20557290;28;98121;-77
2022/08/04 07:17:45;;;;;;;;;;;;;;;25.89;39.38;100499.09;20552917;28;100495;-77
2022/08/04 07:27:45;;;;;;;;;;;;;;;25.95;37.00;100489.72;20563254;28;100575;-77
2022/08/04 07:37:46;;;;;;;;;;;;;;;26.02;38.76;100481.97;20540780;28;98142;-73
2022/08/04 07:47:46;;;;;;;;;;;;;;;26.09;37.86;100480.44;20568151;28;97890;-76
2022/08/04 07:57:46;;;;;;;;;;;;;;;26.15;37.64;100479.84;20576183;28;98902;-74
2022/08/04 08:07:48;;;;;;;;;;;;;;;26.22;39.50;100474.78;20583715;28;99063;-76
2022/08/04 08:17:48;;;;;;;;;;;;;;;26.28;39.21;100475.97;20603521;28;98211;-77
2022/08/04 08:27:48;;;;;;;;;;;;;;;26.34;38.35;100472.72;20589073;28;97409;-78
2022/08/04 08:37:55;;;;;;;;;;;;;;;26.41;38.22;100468.47;20583819;28;97236;-77
2022/08/04 08:47:55;;;;;;;;;;;;;;;26.46;38.20;100474.16;20583856;28;98376;-78
2022/08/04 08:58:05;;;;;;;;;;;;;;;26.50;37.98;100470.22;20573375;28;99765;-77
2022/08/04 09:08:06;;;;;;;;;;;;;;;26.55;37.57;100456.50;20582452;28;98420;-79
2022/08/04 09:18:12;;;;;;;;;;;;;;;26.60;37.42;100462.19;20582205;28;100502;-78
2022/08/04 09:28:29;;;;;;;;;;;;;;;26.63;37.26;100459.19;20581422;28;97893;-80
2022/08/04 09:38:34;;;;;;;;;;;;;;;26.71;37.05;100454.94;20571047;28;101286;-79
2022/08/04 09:48:46;;;;;;;;;;;;;;;26.77;36.69;100443.72;20580641;28;98460;-79
2022/08/04 09:59:02;;;;;;;;;;;;;;;26.81;36.49;100437.97;20574799;28;98965;-78
2022/08/04 10:09:21;;;;;;;;;;;;;;;26.87;36.67;100427.69;20590014;28;100846;-79
2022/08/04 10:19:26;;;;;;;;;;;;;;;26.93;36.31;100430.56;20586524;28;98699;-79
2022/08/04 10:29:32;;;;;;;;;;;;;;;27.02;35.92;100415.50;20583427;28;101226;-79
2022/08/04 10:50:26;;;;;;;;;;;;;;;27.21;36.08;100395.00;20564408;28;98778;-77
2022/08/04 11:00:27;;;;;;;;;;;;;;;27.32;36.73;100382.28;20570285;28;98741;-76
2022/08/04 11:10:29;;;;;;;;;;;;;;;27.44;36.53;100382.88;20591126;28;99035;-76
2022/08/04 11:20:34;;;;;;;;;;;;;;;27.51;36.62;100377.72;20593916;28;97437;-75
2022/08/04 11:30:51;;;;;;;;;;;;;;;27.56;36.48;100371.91;20584323;28;101110;-76
2022/08/04 11:40:57;;;;;;;;;;;;;;;27.63;36.29;100371.09;20572869;28;98494;-76
2022/08/04 11:51:01;;;;;;;;;;;;;;;27.71;36.17;100357.00;20562319;28;100230;-76
2022/08/04 12:01:01;;;;;;;;;;;;;;;27.76;36.46;100346.69;20558002;28;102073;-72
2022/08/04 12:11:04;;;;;;;;;;;;;;;27.82;36.79;100331.06;20551294;28;100299;-72
2022/08/04 12:21:08;;;;;;;;;;;;;;;27.89;37.40;100319.63;20540862;28;98055;-75
2022/08/04 12:31:18;;;;;;;;;;;;;;;27.99;37.08;100313.28;20536788;28;97968;-75
2022/08/04 12:41:22;;;;;;;;;;;;;;;28.06;37.30;100309.00;20562753;28;98133;-75
2022/08/04 12:51:25;;;;;;;;;;;;;;;28.14;36.94;100294.84;20564390;28;97423;-74
2022/08/04 13:01:28;;;;;;;;;;;;;;;28.23;35.71;100297.34;20555824;28;98399;-75
2022/08/04 13:11:33;;;;;;;;;;;;;;;28.32;35.77;100290.19;20549891;28;98730;-74
2022/08/04 13:21:34;;;;;;;;;;;;;;;28.39;35.86;100277.88;20560614;28;99234;-76
2022/08/04 13:31:35;;;;;;;;;;;;;;;28.45;35.63;100276.34;20563088;28;101934;-76
2022/08/04 13:41:37;;;;;;;;;;;;;;;28.46;35.38;100262.03;20572998;28;98821;-73
2022/08/04 13:51:38;;;;;;;;;;;;;;;28.50;35.12;100249.19;20546693;28;97617;-74
2022/08/04 14:01:41;;;;;;;;;;;;;;;28.54;34.39;100250.50;20555656;28;99184;-74
2022/08/04 14:11:43;;;;;;;;;;;;;;;28.62;34.05;100233.69;20564255;28;98869;-74
2022/08/04 14:21:44;;;;;;;;;;;;;;;28.69;34.09;100219.53;20560338;28;101095;-76
2022/08/04 14:31:48;;;;;;;;;;;;;;;28.71;33.51;100222.00;20559479;28;98586;-73
2022/08/04 14:41:49;;;;;;;;;;;;;;;28.77;33.10;100221.31;20555787;28;100112;-74
2022/08/04 14:51:57;;;;;;;;;;;;;;;28.83;33.31;100212.66;20563518;28;100597;-74
2022/08/04 15:01:58;;;;;;;;;;;;;;;28.84;32.85;100200.16;20590853;28;96952;-74
2022/08/04 15:11:59;;;;;;;;;;;;;;;28.86;33.30;100209.63;20586431;28;98611;-75
2022/08/04 15:21:59;;;;;;;;;;;;;;;28.89;33.43;100208.44;20596412;28;97186;-76
2022/08/04 15:32:02;;;;;;;;;;;;;;;28.95;33.00;100204.25;20585488;28;98731;-74
2022/08/04 15:42:09;;;;;;;;;;;;;;;29.13;32.72;100204.00;20590581;28;99468;-75
2022/08/04 15:52:11;;;;;;;;;;;;;;;29.37;31.91;100187.03;20586415;28;97983;-75
2022/08/04 16:02:30;;;;;;;;;;;;;;;29.51;31.87;100174.72;20580790;28;98450;-75
2022/08/04 16:12:49;;;;;;;;;;;;;;;29.47;31.76;100179.59;20605128;28;97694;-74
2022/08/04 16:22:50;;;;;;;;;;;;;;;29.32;32.01;100170.72;20593940;28;98467;-74
2022/08/04 16:32:50;;;;;;;;;;;;;;;29.18;32.33;100165.09;20575553;28;98487;-75
2022/08/04 16:42:52;;;;;;;;;;;;;;;29.10;32.08;100162.53;20591869;28;97276;-73
2022/08/04 16:52:54;;;;;;;;;;;;;;;29.01;32.31;100155.56;20574204;28;98210;-75
2022/08/04 17:02:54;;;;;;;;;;;;;;;28.97;32.34;100147.09;20583626;28;98410;-74
2022/08/04 17:12:55;;;;;;;;;;;;;;;28.97;31.81;100159.59;20557223;28;98558;-74
2022/08/04 17:23:15;;;;;;;;;;;;;;;28.91;33.23;100169.94;20562509;28;99635;-75
2022/08/04 17:33:16;;;;;;;;;;;;;;;28.83;33.28;100163.84;20555723;28;97902;-75
2022/08/04 17:43:17;;;;;;;;;;;;;;;28.80;33.05;100174.88;20518310;28;98605;-74
2022/08/04 17:53:30;;;;;;;;;;;;;;;28.72;33.19;100173.91;20503700;28;97344;-76
2022/08/04 18:03:30;;;;;;;;;;;;;;;28.66;33.22;100169.22;20511012;28;97662;-75
2022/08/04 18:13:31;;;;;;;;;;;;;;;28.61;33.87;100168.91;20510342;28;101426;-76
2022/08/04 18:23:31;;;;;;;;;;;;;;;28.55;33.83;100178.44;20527010;28;97083;-77
2022/08/04 18:33:31;;;;;;;;;;;;;;;28.52;33.89;100186.75;20532057;28;97951;-74
2022/08/04 18:43:32;;;;;;;;;;;;;;;28.48;34.42;100198.78;20570891;28;97195;-76
2022/08/04 18:53:32;;;;;;;;;;;;;;;28.43;33.08;100214.44;20586062;28;97751;-76
2022/08/04 19:03:33;;;;;;;;;;;;;;;28.40;33.93;100210.25;20583161;28;97748;-76
2022/08/04 19:13:33;;;;;;;;;;;;;;;28.38;33.95;100222.94;20575139;28;99121;-75
2022/08/04 19:23:33;;;;;;;;;;;;;;;28.35;33.85;100227.78;20573859;28;100035;-75
2022/08/04 19:33:34;;;;;;;;;;;;;;;28.33;33.89;100230.63;20572299;28;100723;-76
2022/08/04 19:43:34;;;;;;;;;;;;;;;28.28;34.45;100236.44;20575411;28;99864;-75
2022/08/04 19:53:35;;;;;;;;;;;;;;;28.22;34.39;100234.47;20557957;28;99174;-79
2022/08/04 20:03:35;;;;;;;;;;;;;;;28.15;34.71;100236.13;20570528;28;98938;-76
2022/08/04 20:13:35;;;;;;;;;;;;;;;28.10;35.45;100249.13;20564478;28;98527;-75
2022/08/04 20:23:36;;;;;;;;;;;;;;;28.04;35.54;100239.09;20564721;28;99468;-76
2022/08/04 20:33:36;;;;;;;;;;;;;;;28.00;35.95;100251.91;20553106;28;97544;-74
2022/08/04 20:43:36;;;;;;;;;;;;;;;27.95;35.84;100251.59;20561425;28;99883;-74
2022/08/04 20:53:38;;;;;;;;;;;;;;;27.91;35.48;100248.41;20569878;28;101226;-75
2022/08/04 21:13:59;;;;;;;;;;;;;;;27.82;35.21;100254.75;20533582;28;100511;-74
2022/08/04 21:24:00;;;;;;;;;;;;;;;27.76;34.57;100264.22;20566033;28;99102;-77
2022/08/04 21:34:00;;;;;;;;;;;;;;;27.72;34.63;100262.91;20559240;28;98439;-73
2022/08/04 21:44:01;;;;;;;;;;;;;;;27.64;34.13;100279.66;20570673;28;100691;-74
2022/08/04 21:54:04;;;;;;;;;;;;;;;27.51;33.85;100292.63;20571833;28;101210;-73
2022/08/04 22:04:05;;;;;;;;;;;;;;;27.41;34.10;100291.94;20577033;28;98454;-74
2022/08/04 22:14:06;;;;;;;;;;;;;;;27.32;34.51;100297.19;20577550;28;99072;-74
2022/08/04 22:24:07;;;;;;;;;;;;;;;27.23;34.63;100305.31;20581881;28;98989;-75
2022/08/04 22:34:07;;;;;;;;;;;;;;;27.13;35.37;100311.56;20577273;28;98844;-74
2022/08/04 22:44:07;;;;;;;;;;;;;;;27.09;35.48;100310.25;20586450;28;98182;-76
2022/08/04 22:54:08;;;;;;;;;;;;;;;26.97;36.42;100304.38;20562179;28;97394;-74
2022/08/04 23:04:08;;;;;;;;;;;;;;;26.86;36.22;100302.00;20576892;28;98152;-73
2022/08/04 23:14:08;;;;;;;;;;;;;;;26.76;36.62;100294.16;20580887;28;97587;-74
2022/08/04 23:24:08;;;;;;;;;;;;;;;26.71;36.81;100298.22;20563936;28;97895;-74
2022/08/04 23:34:09;;;;;;;;;;;;;;;26.53;37.65;100289.34;20573445;28;98091;-74
2022/08/04 23:44:09;;;;;;;;;;;;;;;26.38;37.64;100290.91;20570621;28;100611;-73
2022/08/04 23:54:09;;;;;;;;;;;;;;;26.35;38.26;100299.19;20574044;28;99747;-74
